sensor_id;sensor_type;location;lat;lon;timestamp;temperature;humidity
37446;DHT22;23307;51.136;14.942;2022-08-14T00:02:14;21.90;99.90
37446;DHT22;23307;51.136;14.942;2022-08-14T00:04:40;21.90;99.90
37446;DHT22;23307;51.136;14.942;2022-08-14T00:07:05;21.80;99.90
37446;DHT22;23307;51.136;14.942;2022-08-14T00:09:31;21.80;99.90
37446;DHT22;23307;51.136;14.942;2022-08-14T00:11:57;21.80;99.90
37446;DHT22;23307;51.136;14.942;2022-08-14T00:14:24;21.80;99.90
37446;DHT22;23307;51.136;14.942;2022-08-14T00:16:50;21.80;99.90
37446;DHT22;23307;51.136;14.942;2022-08-14T00:19:17;21.80;99.90
37446;DHT22;23307;51.136;14.942;2022-08-14T00:21:42;21.80;99.90
37446;DHT22;23307;51.136;14.942;2022-08-14T00:24:08;21.80;99.90
37446;DHT22;23307;51.136;14.942;2022-08-14T00:26:34;21.80;99.90
37446;DHT22;23307;51.136;14.942;2022-08-14T00:28:59;21.90;99.90
37446;DHT22;23307;51.136;14.942;2022-08-14T00:31:25;21.90;99.90
37446;DHT22;23307;51.136;14.942;2022-08-14T00:33:52;21.90;99.90
37446;DHT22;23307;51.136;14.942;2022-08-14T00:36:17;21.80;99.90
37446;DHT22;23307;51.136;14.942;2022-08-14T00:38:43;21.80;99.90
37446;DHT22;23307;51.136;14.942;2022-08-14T00:41:08;21.80;99.90
37446;DHT22;23307;51.136;14.942;2022-08-14T00:43:35;21.80;99.90
37446;DHT22;23307;51.136;14.942;2022-08-14T00:46:04;21.80;99.90
37446;DHT22;23307;51.136;14.942;2022-08-14T00:48:30;21.80;99.90
37446;DHT22;23307;51.136;14.942;2022-08-14T00:50:55;21.80;99.90
37446;DHT22;23307;51.136;14.942;2022-08-14T00:53:21;21.80;99.90
37446;DHT22;23307;51.136;14.942;2022-08-14T00:55:49;21.80;99.90
37446;DHT22;23307;51.136;14.942;2022-08-14T00:58:15;21.80;99.90
37446;DHT22;23307;51.136;14.942;2022-08-14T01:01:04;21.70;99.90
37446;DHT22;23307;51.136;14.942;2022-08-14T01:03:30;21.60;99.90
37446;DHT22;23307;51.136;14.942;2022-08-14T01:05:58;21.60;99.90
37446;DHT22;23307;51.136;14.942;2022-08-14T01:08:26;21.60;99.90
37446;DHT22;23307;51.136;14.942;2022-08-14T01:10:53;21.60;99.90
37446;DHT22;23307;51.136;14.942;2022-08-14T01:13:39;21.60;99.90
37446;DHT22;23307;51.136;14.942;2022-08-14T01:16:09;21.60;99.90
37446;DHT22;23307;51.136;14.942;2022-08-14T01:18:35;21.50;99.90
37446;DHT22;23307;51.136;14.942;2022-08-14T01:21:38;21.50;99.90
37446;DHT22;23307;51.136;14.942;2022-08-14T01:24:05;21.50;99.90
37446;DHT22;23307;51.136;14.942;2022-08-14T01:26:33;21.40;99.90
37446;DHT22;23307;51.136;14.942;2022-08-14T01:29:00;21.40;99.90
37446;DHT22;23307;51.136;14.942;2022-08-14T01:31:28;21.40;99.90
37446;DHT22;23307;51.136;14.942;2022-08-14T01:33:56;21.30;99.90
37446;DHT22;23307;51.136;14.942;2022-08-14T01:36:24;21.30;99.90
37446;DHT22;23307;51.136;14.942;2022-08-14T01:38:52;21.30;99.90
37446;DHT22;23307;51.136;14.942;2022-08-14T01:41:21;21.30;99.90
37446;DHT22;23307;51.136;14.942;2022-08-14T01:43:58;21.30;99.90
37446;DHT22;23307;51.136;14.942;2022-08-14T01:46:27;21.30;99.90
37446;DHT22;23307;51.136;14.942;2022-08-14T01:48:53;21.20;99.90
37446;DHT22;23307;51.136;14.942;2022-08-14T01:51:21;21.20;99.90
37446;DHT22;23307;51.136;14.942;2022-08-14T01:54:03;21.20;99.90
37446;DHT22;23307;51.136;14.942;2022-08-14T01:56:32;21.10;99.90
37446;DHT22;23307;51.136;14.942;2022-08-14T01:59:00;21.10;99.90
37446;DHT22;23307;51.136;14.942;2022-08-14T02:01:26;21.00;99.90
37446;DHT22;23307;51.136;14.942;2022-08-14T02:03:52;21.00;99.90
37446;DHT22;23307;51.136;14.942;2022-08-14T02:06:17;20.90;99.90
37446;DHT22;23307;51.136;14.942;2022-08-14T02:08:44;20.90;99.90
37446;DHT22;23307;51.136;14.942;2022-08-14T02:11:10;20.90;99.90
37446;DHT22;23307;51.136;14.942;2022-08-14T02:13:50;20.90;99.90
37446;DHT22;23307;51.136;14.942;2022-08-14T02:16:17;20.90;99.90
37446;DHT22;23307;51.136;14.942;2022-08-14T02:18:44;20.80;99.90
37446;DHT22;23307;51.136;14.942;2022-08-14T02:21:11;20.80;99.90
37446;DHT22;23307;51.136;14.942;2022-08-14T02:23:37;20.80;99.90
37446;DHT22;23307;51.136;14.942;2022-08-14T02:26:14;20.70;99.90
37446;DHT22;23307;51.136;14.942;2022-08-14T02:28:40;20.70;99.90
37446;DHT22;23307;51.136;14.942;2022-08-14T02:31:05;20.70;99.90
37446;DHT22;23307;51.136;14.942;2022-08-14T02:33:33;20.70;99.90
37446;DHT22;23307;51.136;14.942;2022-08-14T02:36:00;20.70;99.90
37446;DHT22;23307;51.136;14.942;2022-08-14T02:38:26;20.60;99.90
37446;DHT22;23307;51.136;14.942;2022-08-14T02:40:51;20.60;99.90
37446;DHT22;23307;51.136;14.942;2022-08-14T02:43:17;20.60;99.90
37446;DHT22;23307;51.136;14.942;2022-08-14T02:45:43;20.50;99.90
37446;DHT22;23307;51.136;14.942;2022-08-14T02:48:10;20.50;99.90
37446;DHT22;23307;51.136;14.942;2022-08-14T02:50:36;20.40;99.90
37446;DHT22;23307;51.136;14.942;2022-08-14T02:53:03;20.40;99.90
37446;DHT22;23307;51.136;14.942;2022-08-14T02:55:29;20.30;99.90
37446;DHT22;23307;51.136;14.942;2022-08-14T02:57:55;20.20;99.90
37446;DHT22;23307;51.136;14.942;2022-08-14T03:00:21;20.20;99.90
37446;DHT22;23307;51.136;14.942;2022-08-14T03:02:48;20.10;99.90
37446;DHT22;23307;51.136;14.942;2022-08-14T03:05:15;20.00;99.90
37446;DHT22;23307;51.136;14.942;2022-08-14T03:07:42;19.90;99.90
37446;DHT22;23307;51.136;14.942;2022-08-14T03:10:09;19.90;99.90
37446;DHT22;23307;51.136;14.942;2022-08-14T03:12:35;20.00;99.90
37446;DHT22;23307;51.136;14.942;2022-08-14T03:15:03;20.00;99.90
37446;DHT22;23307;51.136;14.942;2022-08-14T03:17:39;20.00;99.90
37446;DHT22;23307;51.136;14.942;2022-08-14T03:20:05;20.00;99.90
37446;DHT22;23307;51.136;14.942;2022-08-14T03:22:31;20.00;99.90
37446;DHT22;23307;51.136;14.942;2022-08-14T03:24:58;20.00;99.90
37446;DHT22;23307;51.136;14.942;2022-08-14T03:27:24;20.10;99.90
37446;DHT22;23307;51.136;14.942;2022-08-14T03:29:51;20.00;99.90
37446;DHT22;23307;51.136;14.942;2022-08-14T03:32:16;20.00;99.90
37446;DHT22;23307;51.136;14.942;2022-08-14T03:34:42;20.10;99.90
37446;DHT22;23307;51.136;14.942;2022-08-14T03:37:07;20.00;99.90
37446;DHT22;23307;51.136;14.942;2022-08-14T03:39:34;20.00;99.90
37446;DHT22;23307;51.136;14.942;2022-08-14T03:42:00;20.00;99.90
37446;DHT22;23307;51.136;14.942;2022-08-14T03:44:25;20.00;99.90
37446;DHT22;23307;51.136;14.942;2022-08-14T03:46:51;19.90;99.90
37446;DHT22;23307;51.136;14.942;2022-08-14T03:49:20;19.90;99.90
37446;DHT22;23307;51.136;14.942;2022-08-14T03:51:48;19.90;99.90
37446;DHT22;23307;51.136;14.942;2022-08-14T03:54:14;19.80;99.90
37446;DHT22;23307;51.136;14.942;2022-08-14T03:56:40;19.80;99.90
37446;DHT22;23307;51.136;14.942;2022-08-14T03:59:09;19.70;99.90
37446;DHT22;23307;51.136;14.942;2022-08-14T04:01:37;19.70;99.90
37446;DHT22;23307;51.136;14.942;2022-08-14T04:04:04;19.60;99.90
37446;DHT22;23307;51.136;14.942;2022-08-14T04:06:32;19.60;99.90
37446;DHT22;23307;51.136;14.942;2022-08-14T04:08:58;19.60;99.90
37446;DHT22;23307;51.136;14.942;2022-08-14T04:11:24;19.50;99.90
37446;DHT22;23307;51.136;14.942;2022-08-14T04:13:49;19.40;99.90
37446;DHT22;23307;51.136;14.942;2022-08-14T04:16:18;19.40;99.90
37446;DHT22;23307;51.136;14.942;2022-08-14T04:18:48;19.50;99.90
37446;DHT22;23307;51.136;14.942;2022-08-14T04:21:15;19.60;99.90
37446;DHT22;23307;51.136;14.942;2022-08-14T04:23:41;19.60;99.90
37446;DHT22;23307;51.136;14.942;2022-08-14T04:26:10;19.60;99.90
37446;DHT22;23307;51.136;14.942;2022-08-14T04:28:37;19.70;99.90
37446;DHT22;23307;51.136;14.942;2022-08-14T04:31:03;19.70;99.90
37446;DHT22;23307;51.136;14.942;2022-08-14T04:33:29;19.70;99.90
37446;DHT22;23307;51.136;14.942;2022-08-14T04:35:55;19.80;99.90
37446;DHT22;23307;51.136;14.942;2022-08-14T04:38:21;19.80;99.90
37446;DHT22;23307;51.136;14.942;2022-08-14T04:41:05;19.80;99.90
37446;DHT22;23307;51.136;14.942;2022-08-14T04:43:50;19.90;99.90
37446;DHT22;23307;51.136;14.942;2022-08-14T04:46:17;19.90;99.90
37446;DHT22;23307;51.136;14.942;2022-08-14T04:48:43;19.90;99.90
37446;DHT22;23307;51.136;14.942;2022-08-14T04:51:14;19.90;99.90
37446;DHT22;23307;51.136;14.942;2022-08-14T04:53:42;19.90;99.90
37446;DHT22;23307;51.136;14.942;2022-08-14T04:56:10;19.90;99.90
37446;DHT22;23307;51.136;14.942;2022-08-14T04:58:37;20.00;99.90
37446;DHT22;23307;51.136;14.942;2022-08-14T05:01:04;20.00;99.90
37446;DHT22;23307;51.136;14.942;2022-08-14T05:03:33;20.10;99.90
37446;DHT22;23307;51.136;14.942;2022-08-14T05:06:02;20.10;99.90
37446;DHT22;23307;51.136;14.942;2022-08-14T05:08:29;20.20;99.90
37446;DHT22;23307;51.136;14.942;2022-08-14T05:10:56;20.30;99.90
37446;DHT22;23307;51.136;14.942;2022-08-14T05:13:23;20.30;99.90
37446;DHT22;23307;51.136;14.942;2022-08-14T05:15:50;20.40;99.90
37446;DHT22;23307;51.136;14.942;2022-08-14T05:18:21;20.50;99.90
37446;DHT22;23307;51.136;14.942;2022-08-14T05:20:50;20.50;99.90
37446;DHT22;23307;51.136;14.942;2022-08-14T05:23:19;20.60;99.90
37446;DHT22;23307;51.136;14.942;2022-08-14T05:25:46;20.70;99.90
37446;DHT22;23307;51.136;14.942;2022-08-14T05:28:15;20.80;99.90
37446;DHT22;23307;51.136;14.942;2022-08-14T05:30:46;20.80;99.90
37446;DHT22;23307;51.136;14.942;2022-08-14T05:33:13;20.90;99.90
37446;DHT22;23307;51.136;14.942;2022-08-14T05:35:40;21.00;99.90
37446;DHT22;23307;51.136;14.942;2022-08-14T05:38:07;21.00;99.90
37446;DHT22;23307;51.136;14.942;2022-08-14T05:40:33;21.10;99.90
37446;DHT22;23307;51.136;14.942;2022-08-14T05:42:59;21.20;99.90
37446;DHT22;23307;51.136;14.942;2022-08-14T05:45:25;21.20;99.90
37446;DHT22;23307;51.136;14.942;2022-08-14T05:47:51;21.30;99.90
37446;DHT22;23307;51.136;14.942;2022-08-14T05:50:16;21.40;99.90
37446;DHT22;23307;51.136;14.942;2022-08-14T05:52:42;21.50;99.90
37446;DHT22;23307;51.136;14.942;2022-08-14T05:55:09;21.50;99.90
37446;DHT22;23307;51.136;14.942;2022-08-14T05:57:46;21.50;99.90
37446;DHT22;23307;51.136;14.942;2022-08-14T06:00:12;21.50;99.90
37446;DHT22;23307;51.136;14.942;2022-08-14T06:02:38;21.50;99.90
37446;DHT22;23307;51.136;14.942;2022-08-14T06:05:04;21.50;99.90
37446;DHT22;23307;51.136;14.942;2022-08-14T06:07:29;21.60;99.90
37446;DHT22;23307;51.136;14.942;2022-08-14T06:09:55;21.70;99.90
37446;DHT22;23307;51.136;14.942;2022-08-14T06:12:20;21.70;99.90
37446;DHT22;23307;51.136;14.942;2022-08-14T06:14:46;21.80;99.90
37446;DHT22;23307;51.136;14.942;2022-08-14T06:17:11;21.90;99.90
37446;DHT22;23307;51.136;14.942;2022-08-14T06:19:37;22.00;99.90
37446;DHT22;23307;51.136;14.942;2022-08-14T06:22:02;22.00;99.90
37446;DHT22;23307;51.136;14.942;2022-08-14T06:24:28;22.10;99.90
37446;DHT22;23307;51.136;14.942;2022-08-14T06:26:54;22.10;99.90
37446;DHT22;23307;51.136;14.942;2022-08-14T06:29:19;22.20;99.90
37446;DHT22;23307;51.136;14.942;2022-08-14T06:31:45;22.30;99.90
37446;DHT22;23307;51.136;14.942;2022-08-14T06:34:11;22.40;99.90
37446;DHT22;23307;51.136;14.942;2022-08-14T06:36:37;22.40;99.90
37446;DHT22;23307;51.136;14.942;2022-08-14T06:39:03;22.50;99.90
37446;DHT22;23307;51.136;14.942;2022-08-14T06:41:28;22.50;99.90
37446;DHT22;23307;51.136;14.942;2022-08-14T06:43:54;22.60;99.90
37446;DHT22;23307;51.136;14.942;2022-08-14T06:46:19;22.60;99.90
37446;DHT22;23307;51.136;14.942;2022-08-14T06:48:47;22.70;99.90
37446;DHT22;23307;51.136;14.942;2022-08-14T06:51:13;22.80;99.90
37446;DHT22;23307;51.136;14.942;2022-08-14T06:53:38;22.90;99.90
37446;DHT22;23307;51.136;14.942;2022-08-14T06:56:04;23.00;99.90
37446;DHT22;23307;51.136;14.942;2022-08-14T06:58:30;23.10;99.90
37446;DHT22;23307;51.136;14.942;2022-08-14T07:00:55;23.20;99.90
37446;DHT22;23307;51.136;14.942;2022-08-14T07:03:40;23.30;99.90
37446;DHT22;23307;51.136;14.942;2022-08-14T07:06:24;23.40;99.90
37446;DHT22;23307;51.136;14.942;2022-08-14T07:08:49;23.50;99.90
37446;DHT22;23307;51.136;14.942;2022-08-14T07:11:16;23.60;99.90
37446;DHT22;23307;51.136;14.942;2022-08-14T07:13:42;23.70;99.90
37446;DHT22;23307;51.136;14.942;2022-08-14T07:16:08;23.80;99.90
37446;DHT22;23307;51.136;14.942;2022-08-14T07:18:37;23.90;99.90
37446;DHT22;23307;51.136;14.942;2022-08-14T07:21:04;23.90;99.90
37446;DHT22;23307;51.136;14.942;2022-08-14T07:23:30;24.10;99.90
37446;DHT22;23307;51.136;14.942;2022-08-14T07:25:57;24.10;99.90
37446;DHT22;23307;51.136;14.942;2022-08-14T07:28:26;24.30;99.90
37446;DHT22;23307;51.136;14.942;2022-08-14T07:30:54;24.40;99.90
37446;DHT22;23307;51.136;14.942;2022-08-14T07:33:23;24.50;99.90
37446;DHT22;23307;51.136;14.942;2022-08-14T07:35:49;24.60;99.90
37446;DHT22;23307;51.136;14.942;2022-08-14T07:38:20;24.70;99.90
37446;DHT22;23307;51.136;14.942;2022-08-14T07:40:46;24.80;99.90
37446;DHT22;23307;51.136;14.942;2022-08-14T07:43:12;24.80;99.90
37446;DHT22;23307;51.136;14.942;2022-08-14T07:45:39;24.90;99.90
37446;DHT22;23307;51.136;14.942;2022-08-14T07:48:04;25.00;99.90
37446;DHT22;23307;51.136;14.942;2022-08-14T07:50:32;25.10;99.90
37446;DHT22;23307;51.136;14.942;2022-08-14T07:52:57;25.30;99.90
37446;DHT22;23307;51.136;14.942;2022-08-14T07:55:24;25.50;99.90
37446;DHT22;23307;51.136;14.942;2022-08-14T07:57:49;25.60;99.90
37446;DHT22;23307;51.136;14.942;2022-08-14T08:00:18;25.50;99.90
37446;DHT22;23307;51.136;14.942;2022-08-14T08:02:46;25.50;99.90
37446;DHT22;23307;51.136;14.942;2022-08-14T08:05:13;25.50;99.90
37446;DHT22;23307;51.136;14.942;2022-08-14T08:07:39;25.60;99.90
37446;DHT22;23307;51.136;14.942;2022-08-14T08:10:16;25.60;99.90
37446;DHT22;23307;51.136;14.942;2022-08-14T08:13:04;25.70;99.90
37446;DHT22;23307;51.136;14.942;2022-08-14T08:15:33;25.80;99.90
37446;DHT22;23307;51.136;14.942;2022-08-14T08:18:04;25.90;99.90
37446;DHT22;23307;51.136;14.942;2022-08-14T08:20:36;26.00;99.90
37446;DHT22;23307;51.136;14.942;2022-08-14T08:23:03;26.10;99.90
37446;DHT22;23307;51.136;14.942;2022-08-14T08:25:31;26.30;99.90
37446;DHT22;23307;51.136;14.942;2022-08-14T08:28:04;26.60;99.90
37446;DHT22;23307;51.136;14.942;2022-08-14T08:30:32;26.80;99.90
37446;DHT22;23307;51.136;14.942;2022-08-14T08:32:59;26.90;99.90
37446;DHT22;23307;51.136;14.942;2022-08-14T08:35:28;26.90;99.90
37446;DHT22;23307;51.136;14.942;2022-08-14T08:38:00;27.00;99.90
37446;DHT22;23307;51.136;14.942;2022-08-14T08:40:28;27.10;99.90
37446;DHT22;23307;51.136;14.942;2022-08-14T08:42:54;27.30;99.90
37446;DHT22;23307;51.136;14.942;2022-08-14T08:45:20;27.40;99.90
37446;DHT22;23307;51.136;14.942;2022-08-14T08:47:47;27.70;99.90
37446;DHT22;23307;51.136;14.942;2022-08-14T08:50:24;27.70;99.90
37446;DHT22;23307;51.136;14.942;2022-08-14T08:52:56;27.60;99.90
37446;DHT22;23307;51.136;14.942;2022-08-14T08:55:27;27.60;99.90
37446;DHT22;23307;51.136;14.942;2022-08-14T08:57:55;27.60;99.90
37446;DHT22;23307;51.136;14.942;2022-08-14T09:00:21;27.50;99.90
37446;DHT22;23307;51.136;14.942;2022-08-14T09:02:54;27.50;99.90
37446;DHT22;23307;51.136;14.942;2022-08-14T09:05:22;27.50;99.90
37446;DHT22;23307;51.136;14.942;2022-08-14T09:07:47;27.40;99.90
37446;DHT22;23307;51.136;14.942;2022-08-14T09:10:13;27.50;99.90
37446;DHT22;23307;51.136;14.942;2022-08-14T09:12:38;27.50;99.90
37446;DHT22;23307;51.136;14.942;2022-08-14T09:15:07;27.50;99.90
37446;DHT22;23307;51.136;14.942;2022-08-14T09:17:34;27.50;99.90
37446;DHT22;23307;51.136;14.942;2022-08-14T09:20:00;27.60;99.90
37446;DHT22;23307;51.136;14.942;2022-08-14T09:22:26;27.70;99.90
37446;DHT22;23307;51.136;14.942;2022-08-14T09:24:53;27.70;99.90
37446;DHT22;23307;51.136;14.942;2022-08-14T09:27:18;27.70;99.90
37446;DHT22;23307;51.136;14.942;2022-08-14T09:29:45;27.80;99.90
37446;DHT22;23307;51.136;14.942;2022-08-14T09:32:15;27.80;99.90
37446;DHT22;23307;51.136;14.942;2022-08-14T09:35:02;27.80;99.90
37446;DHT22;23307;51.136;14.942;2022-08-14T09:37:36;27.90;99.90
37446;DHT22;23307;51.136;14.942;2022-08-14T09:42:59;28.50;99.90
37446;DHT22;23307;51.136;14.942;2022-08-14T09:45:42;28.80;99.90
37446;DHT22;23307;51.136;14.942;2022-08-14T09:48:16;28.90;99.90
37446;DHT22;23307;51.136;14.942;2022-08-14T09:50:50;28.80;99.90
37446;DHT22;23307;51.136;14.942;2022-08-14T09:56:03;28.60;99.90
37446;DHT22;23307;51.136;14.942;2022-08-14T09:58:41;28.70;99.90
37446;DHT22;23307;51.136;14.942;2022-08-14T10:01:10;28.80;99.90
37446;DHT22;23307;51.136;14.942;2022-08-14T10:03:38;28.90;99.90
37446;DHT22;23307;51.136;14.942;2022-08-14T10:06:14;28.90;99.90
37446;DHT22;23307;51.136;14.942;2022-08-14T10:08:44;28.90;99.90
37446;DHT22;23307;51.136;14.942;2022-08-14T10:13:46;29.00;99.90
37446;DHT22;23307;51.136;14.942;2022-08-14T10:16:12;29.00;99.90
37446;DHT22;23307;51.136;14.942;2022-08-14T10:18:39;29.10;99.90
37446;DHT22;23307;51.136;14.942;2022-08-14T10:21:07;29.10;99.90
37446;DHT22;23307;51.136;14.942;2022-08-14T10:23:47;29.10;99.90
37446;DHT22;23307;51.136;14.942;2022-08-14T10:26:18;29.20;99.90
37446;DHT22;23307;51.136;14.942;2022-08-14T10:28:46;29.20;99.90
37446;DHT22;23307;51.136;14.942;2022-08-14T10:31:24;29.20;99.90
37446;DHT22;23307;51.136;14.942;2022-08-14T10:34:04;29.30;99.90
37446;DHT22;23307;51.136;14.942;2022-08-14T10:36:38;29.30;99.90
37446;DHT22;23307;51.136;14.942;2022-08-14T10:39:07;29.30;99.90
37446;DHT22;23307;51.136;14.942;2022-08-14T10:41:38;29.30;99.90
37446;DHT22;23307;51.136;14.942;2022-08-14T10:44:06;29.20;99.90
37446;DHT22;23307;51.136;14.942;2022-08-14T10:49:20;29.80;99.90
37446;DHT22;23307;51.136;14.942;2022-08-14T10:54:29;30.50;97.20
37446;DHT22;23307;51.136;14.942;2022-08-14T10:57:17;30.60;96.80
37446;DHT22;23307;51.136;14.942;2022-08-14T10:59:58;30.90;96.70
37446;DHT22;23307;51.136;14.942;2022-08-14T11:02:30;30.90;94.70
37446;DHT22;23307;51.136;14.942;2022-08-14T11:07:30;30.50;94.60
37446;DHT22;23307;51.136;14.942;2022-08-14T11:10:02;30.40;93.40
37446;DHT22;23307;51.136;14.942;2022-08-14T11:12:40;30.20;93.30
37446;DHT22;23307;51.136;14.942;2022-08-14T11:15:09;30.20;93.90
37446;DHT22;23307;51.136;14.942;2022-08-14T11:17:35;30.40;93.60
37446;DHT22;23307;51.136;14.942;2022-08-14T11:20:02;30.40;93.40
37446;DHT22;23307;51.136;14.942;2022-08-14T11:22:30;30.40;92.60
37446;DHT22;23307;51.136;14.942;2022-08-14T11:25:01;30.70;92.70
37446;DHT22;23307;51.136;14.942;2022-08-14T11:27:28;31.10;92.70
37446;DHT22;23307;51.136;14.942;2022-08-14T11:29:59;31.50;92.60
37446;DHT22;23307;51.136;14.942;2022-08-14T11:32:25;31.80;90.40
37446;DHT22;23307;51.136;14.942;2022-08-14T11:34:50;31.70;89.90
37446;DHT22;23307;51.136;14.942;2022-08-14T11:37:17;31.90;88.80
37446;DHT22;23307;51.136;14.942;2022-08-14T11:39:43;32.00;88.50
37446;DHT22;23307;51.136;14.942;2022-08-14T11:42:19;31.90;88.40
37446;DHT22;23307;51.136;14.942;2022-08-14T11:44:45;31.90;87.90
37446;DHT22;23307;51.136;14.942;2022-08-14T11:47:11;31.70;86.10
37446;DHT22;23307;51.136;14.942;2022-08-14T11:49:45;31.50;87.60
37446;DHT22;23307;51.136;14.942;2022-08-14T11:52:15;31.50;88.70
37446;DHT22;23307;51.136;14.942;2022-08-14T11:54:43;31.70;88.70
37446;DHT22;23307;51.136;14.942;2022-08-14T11:57:15;31.80;86.30
37446;DHT22;23307;51.136;14.942;2022-08-14T11:59:40;31.60;84.70
37446;DHT22;23307;51.136;14.942;2022-08-14T12:02:15;31.60;85.10
37446;DHT22;23307;51.136;14.942;2022-08-14T12:04:52;31.60;86.30
37446;DHT22;23307;51.136;14.942;2022-08-14T12:07:18;31.50;84.60
37446;DHT22;23307;51.136;14.942;2022-08-14T12:09:45;31.50;85.90
37446;DHT22;23307;51.136;14.942;2022-08-14T12:12:20;31.80;86.10
37446;DHT22;23307;51.136;14.942;2022-08-14T12:14:47;32.20;84.60
37446;DHT22;23307;51.136;14.942;2022-08-14T12:17:13;32.50;84.20
37446;DHT22;23307;51.136;14.942;2022-08-14T12:19:47;32.90;81.60
37446;DHT22;23307;51.136;14.942;2022-08-14T12:22:13;32.90;78.50
37446;DHT22;23307;51.136;14.942;2022-08-14T12:24:42;32.40;78.30
37446;DHT22;23307;51.136;14.942;2022-08-14T12:27:09;32.10;78.30
37446;DHT22;23307;51.136;14.942;2022-08-14T12:29:34;32.20;78.20
37446;DHT22;23307;51.136;14.942;2022-08-14T12:32:02;32.40;77.10
37446;DHT22;23307;51.136;14.942;2022-08-14T12:34:32;32.60;74.70
37446;DHT22;23307;51.136;14.942;2022-08-14T12:37:04;32.40;75.40
37446;DHT22;23307;51.136;14.942;2022-08-14T12:39:30;32.20;74.20
37446;DHT22;23307;51.136;14.942;2022-08-14T12:41:57;32.00;75.20
37446;DHT22;23307;51.136;14.942;2022-08-14T12:44:33;31.80;76.10
37446;DHT22;23307;51.136;14.942;2022-08-14T12:47:11;31.50;76.10
37446;DHT22;23307;51.136;14.942;2022-08-14T12:49:51;31.40;76.80
37446;DHT22;23307;51.136;14.942;2022-08-14T12:52:37;31.10;77.80
37446;DHT22;23307;51.136;14.942;2022-08-14T12:57:40;30.60;85.30
37446;DHT22;23307;51.136;14.942;2022-08-14T13:00:23;30.40;88.50
37446;DHT22;23307;51.136;14.942;2022-08-14T13:02:51;30.40;89.00
37446;DHT22;23307;51.136;14.942;2022-08-14T13:05:20;30.40;89.50
37446;DHT22;23307;51.136;14.942;2022-08-14T13:07:49;30.40;89.40
37446;DHT22;23307;51.136;14.942;2022-08-14T13:10:20;30.50;90.00
37446;DHT22;23307;51.136;14.942;2022-08-14T13:12:47;30.70;89.60
37446;DHT22;23307;51.136;14.942;2022-08-14T13:15:14;31.30;89.90
37446;DHT22;23307;51.136;14.942;2022-08-14T13:17:48;32.00;87.90
37446;DHT22;23307;51.136;14.942;2022-08-14T13:20:16;32.50;83.80
37446;DHT22;23307;51.136;14.942;2022-08-14T13:22:42;32.70;80.20
37446;DHT22;23307;51.136;14.942;2022-08-14T13:25:11;32.70;80.80
37446;DHT22;23307;51.136;14.942;2022-08-14T13:27:37;33.10;81.60
37446;DHT22;23307;51.136;14.942;2022-08-14T13:30:07;33.20;79.40
37446;DHT22;23307;51.136;14.942;2022-08-14T13:32:33;32.90;77.70
37446;DHT22;23307;51.136;14.942;2022-08-14T13:35:04;32.20;79.90
37446;DHT22;23307;51.136;14.942;2022-08-14T13:37:30;31.70;82.10
37446;DHT22;23307;51.136;14.942;2022-08-14T13:39:55;31.20;83.80
37446;DHT22;23307;51.136;14.942;2022-08-14T13:42:21;30.90;86.00
37446;DHT22;23307;51.136;14.942;2022-08-14T13:44:51;30.50;87.70
37446;DHT22;23307;51.136;14.942;2022-08-14T13:47:19;30.30;89.30
37446;DHT22;23307;51.136;14.942;2022-08-14T13:49:49;30.20;90.60
37446;DHT22;23307;51.136;14.942;2022-08-14T13:52:20;30.20;90.40
37446;DHT22;23307;51.136;14.942;2022-08-14T13:54:48;30.60;90.70
37446;DHT22;23307;51.136;14.942;2022-08-14T13:57:16;30.80;90.00
37446;DHT22;23307;51.136;14.942;2022-08-14T13:59:49;31.10;89.90
37446;DHT22;23307;51.136;14.942;2022-08-14T14:02:16;31.20;89.30
37446;DHT22;23307;51.136;14.942;2022-08-14T14:04:45;31.20;87.70
37446;DHT22;23307;51.136;14.942;2022-08-14T14:07:14;30.90;87.20
37446;DHT22;23307;51.136;14.942;2022-08-14T14:09:42;30.60;88.70
37446;DHT22;23307;51.136;14.942;2022-08-14T14:12:10;30.50;88.70
37446;DHT22;23307;51.136;14.942;2022-08-14T14:14:36;30.70;89.90
37446;DHT22;23307;51.136;14.942;2022-08-14T14:17:06;30.90;89.10
37446;DHT22;23307;51.136;14.942;2022-08-14T14:19:32;31.00;88.70
37446;DHT22;23307;51.136;14.942;2022-08-14T14:22:03;31.20;87.80
37446;DHT22;23307;51.136;14.942;2022-08-14T14:24:33;31.30;85.30
37446;DHT22;23307;51.136;14.942;2022-08-14T14:27:01;31.20;83.50
37446;DHT22;23307;51.136;14.942;2022-08-14T14:29:29;31.00;84.00
37446;DHT22;23307;51.136;14.942;2022-08-14T14:31:57;30.80;85.60
37446;DHT22;23307;51.136;14.942;2022-08-14T14:34:24;30.60;86.80
37446;DHT22;23307;51.136;14.942;2022-08-14T14:36:50;30.50;87.20
37446;DHT22;23307;51.136;14.942;2022-08-14T14:39:16;30.40;86.60
37446;DHT22;23307;51.136;14.942;2022-08-14T14:41:50;30.30;87.80
37446;DHT22;23307;51.136;14.942;2022-08-14T14:44:21;30.40;88.20
37446;DHT22;23307;51.136;14.942;2022-08-14T14:46:47;30.50;88.40
37446;DHT22;23307;51.136;14.942;2022-08-14T14:49:19;30.60;87.60
37446;DHT22;23307;51.136;14.942;2022-08-14T14:51:45;30.60;87.90
37446;DHT22;23307;51.136;14.942;2022-08-14T14:54:12;30.50;89.50
37446;DHT22;23307;51.136;14.942;2022-08-14T14:56:39;30.90;89.30
37446;DHT22;23307;51.136;14.942;2022-08-14T14:59:06;31.20;86.50
37446;DHT22;23307;51.136;14.942;2022-08-14T15:01:34;31.60;86.60
37446;DHT22;23307;51.136;14.942;2022-08-14T15:04:00;31.80;85.00
37446;DHT22;23307;51.136;14.942;2022-08-14T15:06:28;32.00;84.40
37446;DHT22;23307;51.136;14.942;2022-08-14T15:08:56;32.10;83.90
37446;DHT22;23307;51.136;14.942;2022-08-14T15:11:22;32.20;82.70
37446;DHT22;23307;51.136;14.942;2022-08-14T15:13:48;32.30;83.60
37446;DHT22;23307;51.136;14.942;2022-08-14T15:16:13;32.80;83.80
37446;DHT22;23307;51.136;14.942;2022-08-14T15:18:40;32.80;81.50
37446;DHT22;23307;51.136;14.942;2022-08-14T15:21:06;32.80;81.80
37446;DHT22;23307;51.136;14.942;2022-08-14T15:23:32;32.70;81.20
37446;DHT22;23307;51.136;14.942;2022-08-14T15:25:59;32.40;82.60
37446;DHT22;23307;51.136;14.942;2022-08-14T15:28:25;32.50;82.10
37446;DHT22;23307;51.136;14.942;2022-08-14T15:30:52;32.60;80.60
37446;DHT22;23307;51.136;14.942;2022-08-14T15:33:18;32.60;81.40
37446;DHT22;23307;51.136;14.942;2022-08-14T15:36:03;32.50;81.70
37446;DHT22;23307;51.136;14.942;2022-08-14T15:38:29;32.40;83.60
37446;DHT22;23307;51.136;14.942;2022-08-14T15:40:56;32.60;82.50
37446;DHT22;23307;51.136;14.942;2022-08-14T15:43:22;32.70;80.70